Flight Track Log - Related Links

Times and Time Zones

All times are in EDT time to prevent confusion due to time zone crossing. See the GPD131 flight status page for this flight to view local times or setup timezone preferences in your user account.

Time Position Orientation Groundspeed Altitude Reporting Facility
EDT Latitude Longitude Course Direction KTS MPH feet Rate Location/Type
Fri 01:45:51 PM 18.4500 -65.9833 62° Northeast 100 115 1,200  Level San Juan Center
Fri 01:46:52 PM 18.4667 -65.9500 62° Northeast 140 161 2,300 1,041 Climbing San Juan Center
Fri 01:47:52 PM 18.5000 -65.9000 55° Northeast 170 196 3,300 1,000 Climbing San Juan Center
Fri 01:48:52 PM 18.5167 -65.8500 71° East 170 196 4,300 1,000 Climbing San Juan Center
Fri 01:49:52 PM 18.5167 -65.8000 90° East 180 207 5,300 992 Climbing San Juan Center
Fri 01:50:53 PM 18.5167 -65.7500 90° East 180 207 6,300 942 Climbing San Juan Center
Fri 01:51:53 PM 18.5000 -65.7000 109° East 180 207 7,200 950 Climbing San Juan Center
Fri 01:52:53 PM 18.5000 -65.6500 90° East 190 219 8,200 950 Climbing San Juan Center
Fri 01:53:53 PM 18.5000 -65.5833 90° East 190 219 9,100 992 Climbing San Juan Center
Fri 01:54:54 PM 18.5000 -65.5333 90° East 200 230 10,200 992 Climbing San Juan Center
Fri 01:55:54 PM 18.5000 -65.4667 90° East 200 230 11,100 942 Climbing San Juan Center
Fri 01:56:55 PM 18.4833 -65.4167 109° East 210 242 12,100 942 Climbing San Juan Center
Fri 01:57:55 PM 18.4833 -65.3500 90° East 220 253 13,000 950 Climbing San Juan Center
Fri 01:58:55 PM 18.4833 -65.2833 90° East 210 242 14,000 942 Climbing San Juan Center
Fri 01:59:56 PM 18.4833 -65.2333 90° East 220 253 14,900 992 Climbing San Juan Center
Fri 02:00:56 PM 18.4833 -65.1667 90° East 220 253 16,000 900 Climbing San Juan Center
Fri 02:01:56 PM 18.4667 -65.1000 105° East 230 265 16,700 500 Climbing San Juan Center
Fri 02:02:56 PM 18.4667 -65.0333 90° East 240 276 17,000 149 Climbing San Juan Center
Fri 02:03:57 PM 18.4667 -64.9500 90° East 260 299 17,000  Level San Juan Center
Fri 02:04:57 PM 18.4667 -64.8667 90° East 260 299 17,000  Level San Juan Center
Fri 02:05:57 PM 18.4667 -64.8000 90° East 260 299 17,000  Level San Juan Center
Fri 02:06:58 PM 18.4500 -64.7167 102° East 260 299 17,000 -50 Level San Juan Center
Fri 02:07:58 PM 18.4500 -64.6500 90° East 260 299 16,900  Descending San Juan Center
Fri 02:08:58 PM 18.4500 -64.5667 90° East 260 299 17,000 50 Climbing San Juan Center
Fri 02:09:59 PM 18.4333 -64.5000 105° East 250 288 17,000  Level San Juan Center
Fri 02:10:59 PM 18.4167 -64.4167 102° East 260 299 17,000  Level San Juan Center
Fri 02:11:59 PM 18.4167 -64.3500 90° East 260 299 17,000 50 Level San Juan Center
Fri 02:13:00 PM 18.4167 -64.2667 109° East 250 288 17,100 -50 Climbing San Juan Center
Fri 02:14:00 PM 18.4000 -64.2000 105° East 260 299 16,900 -600 Descending San Juan Center
Fri 02:15:00 PM 18.4000 -64.1167 90° East 290 334 15,900 -950 Descending San Juan Center
Fri 02:16:00 PM 18.4000 -64.0333 90° East 280 322 15,000 -992 Descending San Juan Center
Fri 02:17:01 PM 18.4000 -63.9500 90° East 300 345 13,900 -1,091 Descending San Juan Center
Fri 02:18:01 PM 18.3833 -63.8667 102° East 280 322 12,800 -1,100 Descending San Juan Center
Fri 02:19:01 PM 18.3833 -63.7833 90° East 280 322 11,700 -893 Descending San Juan Center
Fri 02:20:02 PM 18.3833 -63.7000 90° East 270 311 11,000 -347 Descending San Juan Center
Fri 02:21:02 PM 18.3667 -63.6333 105° East 240 276 11,000  Level San Juan Center
Fri 02:23:00 PM 18.2958 -63.5187 125° Southeast  Level FlightAware Approximate
Fri 02:30:00 PM 18.0342 -63.1179 125° Southeast  Level FlightAware Approximate
Fri 02:31:00 PM 17.9978 -63.0611 113° Southeast  Level FlightAware Approximate
Fri 02:32:00 PM 17.9722 -62.9972 113° Southeast  Level FlightAware Approximate
Fri 02:33:00 PM 17.9346 -62.9406 128° Southeast  Level FlightAware Approximate
Fri 02:34:00 PM 17.8920 -62.8880 125° Southeast  Level FlightAware Approximate
Fri 02:35:00 PM 17.8667 -62.8500 125° Southeast  Level FlightAware Approximate
Fri 02:36:00 PM 17.9044 -62.8436 125° Southeast  Level Estimated
Fri 02:37:00 PM 17.9044 -62.8436 125° Southeast  Level Estimated
Fri 02:38:00 PM 17.9044 -62.8436 125° Southeast  Level Estimated
Fri 02:39:00 PM 17.9044 -62.8436 125° Southeast  Level Estimated
Fri 02:40:00 PM 17.9044 -62.8436 125° Southeast  Level Estimated
Fri 02:41:00 PM 17.9044 -62.8436 125° Southeast  Level Estimated
Fri 02:42:00 PM 17.9044 -62.8436 125° Southeast  Level Estimated
Fri 02:43:00 PM 17.9044 -62.8436 125° Southeast  Level Estimated
Fri 02:44:00 PM 17.9044 -62.8436 125° Southeast  Level Estimated
Fri 02:45:00 PM 17.9044 -62.8436 125° Southeast  Level Estimated
Fri 02:46:00 PM 17.9044 -62.8436 125° Southeast  Level Estimated

Login

Don't have an account? Register now (free) for customized features, flight alerts, and more!